SBRB/RBR METAR and TAF weather

Enter ICAO airport designator
Station Type Date Time Source
SBRB METAR 2020/10/22 03:00 UTC NOAA

SBRB 220300Z 06003KT CAVOK 24/24 Q1014


Station Type Date Time Source
SBRB Decoded METAR 2020/10/22 03:00 UTC NOAA

Rio Branco, Brazil (SBRB) 10-00S 067-48W 143M
Oct 21, 2020 - 11:00 PM EDT / 2020.10.22 0300 UTC
Wind: from the ENE (060 degrees) at 3 MPH (3 KT):0
Visibility: greater than 7 mile(s):0
Temperature: 75 F (24 C)
Dew Point: 75 F (24 C)
Relative Humidity: 100%
Pressure (altimeter): 29.94 in. Hg (1014 hPa)
ob: SBRB 220300Z 06003KT CAVOK 24/24 Q1014
cycle: 3

Station Type Date Time Source
SBRB TAF 2020/10/22 06:24 UTC NOAA

TAF SBRB 220200Z 2206/2218 29005KT CAVOK TN22/2210Z TX33/2218Z
BECMG 2211/2213 23005KT
BECMG 2215/2217 SCT025 FEW030TCU
RMK PHI

Example: see airport list